Decoded Metar for VOCL (CALICUT in INDIA) (IATA:CCJ) | Meteo·Mobile Aviation Weather
aviador You're here:

VOCL Decoded Metar

CALICUT in INDIA
Report Time2019-05-19 19:00:00
UTC Time2019-05-19 19:18:20
Flight Rules mvfr MVFR
Wind320° at 04 kt
W.Decomp.*RWY 28: 3.0 kt HW 2.7 kt RCW
Visibility6000 m
Phenomena:N/A
Clouds:Scattered 012 Hf
Broken 080 Hf
Expected CloudBase > 1,200 ft AGL from Temp-Dew spread
Ceiling8,000 ft
Temp29°C (ISA +15)
Dew Point26°C (84% RH)
Heat Index35.6°C
QNH1009 hPa
Density Alt2,602 ft
Elevation341 ft
Report Wrong Elevation
Raw Report
METAR VOCL 191900Z 32004KT 6000 SCT012 BKN080 29/26 Q1009 NOSIG=

Extra information for VOCL:More info

Metar Taf Metar & Taf Last 4 Metars F.Rules Stats Wind Profile Meteogram Temp Stats Airport Information Weather charts Add Link Nearby VenuesMetar ALERT Operation Metar Decoded Social comments